Terminal Aerodrome Forecast
Issued by NWS Sterling, VA

Home | Current Version | Previous Version | Text Only | Print | Product List | Glossary On
Versions: 1 2 3 4 5 6 7 8 9 10 11 12 13 14 15 16 17 18 19
117
FTUS41 KLWX 271449 AAA
TAFDCA
TAF AMD
KDCA 271449Z 2715/2812 17005KT P6SM SCT012 SCT250
     FM271700 18011G18KT P6SM FEW250
     FM272100 18014G22KT P6SM SCT050
     FM280900 25006KT 5SM BR BKN050=

USA.gov is the U.S. government's official web portal to all federal, state and local government web resources and services.